sensor_id;sensor_type;location;lat;lon;timestamp;P1;durP1;ratioP1;P2;durP2;ratioP2
5813;SDS011;2933;52.302;8.134;2023-08-31T00:04:30;4.23;;;3.13;;
5813;SDS011;2933;52.302;8.134;2023-08-31T00:09:32;9.40;;;3.50;;
5813;SDS011;2933;52.302;8.134;2023-08-31T00:14:34;4.17;;;3.77;;
5813;SDS011;2933;52.302;8.134;2023-08-31T00:19:38;4.23;;;3.83;;
5813;SDS011;2933;52.302;8.134;2023-08-31T00:24:40;8.40;;;3.27;;
5813;SDS011;2933;52.302;8.134;2023-08-31T00:29:42;8.73;;;4.03;;
5813;SDS011;2933;52.302;8.134;2023-08-31T00:34:50;4.63;;;3.90;;
5813;SDS011;2933;52.302;8.134;2023-08-31T00:39:52;7.97;;;4.17;;
5813;SDS011;2933;52.302;8.134;2023-08-31T00:44:54;7.90;;;3.60;;
5813;SDS011;2933;52.302;8.134;2023-08-31T00:49:57;4.50;;;4.10;;
5813;SDS011;2933;52.302;8.134;2023-08-31T00:54:59;4.67;;;4.27;;
5813;SDS011;2933;52.302;8.134;2023-08-31T01:00:02;8.43;;;4.57;;
5813;SDS011;2933;52.302;8.134;2023-08-31T01:05:10;5.00;;;3.80;;
5813;SDS011;2933;52.302;8.134;2023-08-31T01:10:22;4.90;;;3.27;;
5813;SDS011;2933;52.302;8.134;2023-08-31T01:15:30;8.83;;;3.30;;
5813;SDS011;2933;52.302;8.134;2023-08-31T01:20:37;4.83;;;3.20;;
5813;SDS011;2933;52.302;8.134;2023-08-31T01:25:45;6.60;;;3.50;;
5813;SDS011;2933;52.302;8.134;2023-08-31T01:30:48;5.20;;;3.17;;
5813;SDS011;2933;52.302;8.134;2023-08-31T01:35:50;8.00;;;4.17;;
5813;SDS011;2933;52.302;8.134;2023-08-31T01:40:58;6.20;;;3.67;;
5813;SDS011;2933;52.302;8.134;2023-08-31T01:46:04;12.57;;;4.17;;
5813;SDS011;2933;52.302;8.134;2023-08-31T01:51:06;4.97;;;3.77;;
5813;SDS011;2933;52.302;8.134;2023-08-31T01:56:10;7.00;;;4.20;;
5813;SDS011;2933;52.302;8.134;2023-08-31T02:01:13;4.10;;;3.80;;
5813;SDS011;2933;52.302;8.134;2023-08-31T02:06:15;6.50;;;3.70;;
5813;SDS011;2933;52.302;8.134;2023-08-31T02:11:18;8.93;;;4.37;;
5813;SDS011;2933;52.302;8.134;2023-08-31T02:16:20;3.73;;;3.43;;
5813;SDS011;2933;52.302;8.134;2023-08-31T02:21:21;8.20;;;4.10;;
5813;SDS011;2933;52.302;8.134;2023-08-31T02:26:24;5.00;;;3.70;;
5813;SDS011;2933;52.302;8.134;2023-08-31T02:31:26;7.93;;;3.87;;
5813;SDS011;2933;52.302;8.134;2023-08-31T02:36:28;6.07;;;4.30;;
5813;SDS011;2933;52.302;8.134;2023-08-31T02:41:31;5.87;;;4.67;;
5813;SDS011;2933;52.302;8.134;2023-08-31T02:46:32;5.53;;;4.23;;
5813;SDS011;2933;52.302;8.134;2023-08-31T02:51:34;8.37;;;4.93;;
5813;SDS011;2933;52.302;8.134;2023-08-31T02:56:37;5.70;;;4.67;;
5813;SDS011;2933;52.302;8.134;2023-08-31T03:01:39;8.47;;;5.30;;
5813;SDS011;2933;52.302;8.134;2023-08-31T03:06:40;11.60;;;4.67;;
5813;SDS011;2933;52.302;8.134;2023-08-31T03:11:44;5.20;;;4.13;;
5813;SDS011;2933;52.302;8.134;2023-08-31T03:16:45;4.57;;;4.17;;
5813;SDS011;2933;52.302;8.134;2023-08-31T03:21:47;7.07;;;4.20;;
5813;SDS011;2933;52.302;8.134;2023-08-31T03:26:50;7.33;;;4.77;;
5813;SDS011;2933;52.302;8.134;2023-08-31T03:31:51;5.40;;;4.07;;
5813;SDS011;2933;52.302;8.134;2023-08-31T03:36:53;4.87;;;4.40;;
5813;SDS011;2933;52.302;8.134;2023-08-31T03:41:56;4.63;;;4.23;;
5813;SDS011;2933;52.302;8.134;2023-08-31T03:46:57;4.80;;;4.03;;
5813;SDS011;2933;52.302;8.134;2023-08-31T03:51:59;7.47;;;5.00;;
5813;SDS011;2933;52.302;8.134;2023-08-31T03:57:02;5.87;;;5.37;;
5813;SDS011;2933;52.302;8.134;2023-08-31T04:02:03;5.20;;;4.67;;
5813;SDS011;2933;52.302;8.134;2023-08-31T04:07:05;6.70;;;4.73;;
5813;SDS011;2933;52.302;8.134;2023-08-31T04:12:08;7.20;;;5.80;;
5813;SDS011;2933;52.302;8.134;2023-08-31T04:17:10;7.13;;;5.30;;
5813;SDS011;2933;52.302;8.134;2023-08-31T04:22:11;7.80;;;4.97;;
5813;SDS011;2933;52.302;8.134;2023-08-31T04:27:14;5.97;;;5.30;;
5813;SDS011;2933;52.302;8.134;2023-08-31T04:32:16;8.70;;;6.43;;
5813;SDS011;2933;52.302;8.134;2023-08-31T04:37:18;6.67;;;5.80;;
5813;SDS011;2933;52.302;8.134;2023-08-31T04:42:21;8.90;;;7.00;;
5813;SDS011;2933;52.302;8.134;2023-08-31T04:47:22;14.93;;;6.70;;
5813;SDS011;2933;52.302;8.134;2023-08-31T04:52:24;11.50;;;7.87;;
5813;SDS011;2933;52.302;8.134;2023-08-31T04:57:27;10.03;;;6.43;;
5813;SDS011;2933;52.302;8.134;2023-08-31T05:02:28;15.60;;;7.97;;
5813;SDS011;2933;52.302;8.134;2023-08-31T05:07:30;10.30;;;7.93;;
5813;SDS011;2933;52.302;8.134;2023-08-31T05:12:33;13.20;;;9.23;;
5813;SDS011;2933;52.302;8.134;2023-08-31T05:17:34;14.37;;;10.53;;
5813;SDS011;2933;52.302;8.134;2023-08-31T05:22:36;11.40;;;9.50;;
5813;SDS011;2933;52.302;8.134;2023-08-31T05:27:39;28.77;;;11.33;;
5813;SDS011;2933;52.302;8.134;2023-08-31T05:32:40;15.03;;;10.43;;
5813;SDS011;2933;52.302;8.134;2023-08-31T05:37:42;16.90;;;11.53;;
5813;SDS011;2933;52.302;8.134;2023-08-31T05:42:45;20.03;;;11.20;;
5813;SDS011;2933;52.302;8.134;2023-08-31T05:47:46;17.73;;;10.57;;
5813;SDS011;2933;52.302;8.134;2023-08-31T05:52:48;19.60;;;9.80;;
5813;SDS011;2933;52.302;8.134;2023-08-31T05:57:51;14.17;;;10.37;;
5813;SDS011;2933;52.302;8.134;2023-08-31T06:02:52;15.40;;;10.50;;
5813;SDS011;2933;52.302;8.134;2023-08-31T06:07:54;15.80;;;9.43;;
5813;SDS011;2933;52.302;8.134;2023-08-31T06:12:56;14.77;;;9.40;;
5813;SDS011;2933;52.302;8.134;2023-08-31T06:17:58;21.07;;;9.87;;
5813;SDS011;2933;52.302;8.134;2023-08-31T06:22:59;20.10;;;9.80;;
5813;SDS011;2933;52.302;8.134;2023-08-31T06:28:03;11.70;;;8.47;;
5813;SDS011;2933;52.302;8.134;2023-08-31T06:33:08;10.57;;;7.80;;
5813;SDS011;2933;52.302;8.134;2023-08-31T06:38:10;12.67;;;8.67;;
5813;SDS011;2933;52.302;8.134;2023-08-31T06:43:13;10.60;;;7.90;;
5813;SDS011;2933;52.302;8.134;2023-08-31T06:48:14;11.60;;;8.27;;
5813;SDS011;2933;52.302;8.134;2023-08-31T06:53:16;10.03;;;8.10;;
5813;SDS011;2933;52.302;8.134;2023-08-31T06:58:18;8.30;;;7.07;;
5813;SDS011;2933;52.302;8.134;2023-08-31T07:03:20;10.53;;;8.40;;
5813;SDS011;2933;52.302;8.134;2023-08-31T07:08:22;11.73;;;8.10;;
5813;SDS011;2933;52.302;8.134;2023-08-31T07:13:24;14.50;;;9.23;;
5813;SDS011;2933;52.302;8.134;2023-08-31T07:18:26;12.23;;;10.00;;
5813;SDS011;2933;52.302;8.134;2023-08-31T07:23:28;15.00;;;9.20;;
5813;SDS011;2933;52.302;8.134;2023-08-31T07:28:30;14.10;;;8.73;;
5813;SDS011;2933;52.302;8.134;2023-08-31T07:33:33;11.10;;;9.03;;
5813;SDS011;2933;52.302;8.134;2023-08-31T07:38:35;19.60;;;10.23;;
5813;SDS011;2933;52.302;8.134;2023-08-31T07:43:38;15.10;;;8.93;;
5813;SDS011;2933;52.302;8.134;2023-08-31T07:48:39;14.73;;;10.07;;
5813;SDS011;2933;52.302;8.134;2023-08-31T07:53:41;11.97;;;8.87;;
5813;SDS011;2933;52.302;8.134;2023-08-31T07:58:44;15.60;;;11.17;;
5813;SDS011;2933;52.302;8.134;2023-08-31T08:03:45;14.60;;;10.40;;
5813;SDS011;2933;52.302;8.134;2023-08-31T08:08:47;15.03;;;10.03;;
5813;SDS011;2933;52.302;8.134;2023-08-31T08:13:50;11.83;;;9.33;;
5813;SDS011;2933;52.302;8.134;2023-08-31T08:18:51;13.70;;;9.27;;
5813;SDS011;2933;52.302;8.134;2023-08-31T08:23:53;15.73;;;9.57;;
5813;SDS011;2933;52.302;8.134;2023-08-31T08:28:56;11.40;;;8.93;;
5813;SDS011;2933;52.302;8.134;2023-08-31T08:33:57;15.90;;;9.40;;
5813;SDS011;2933;52.302;8.134;2023-08-31T08:39:00;12.70;;;9.27;;
5813;SDS011;2933;52.302;8.134;2023-08-31T08:44:03;12.03;;;9.33;;
5813;SDS011;2933;52.302;8.134;2023-08-31T08:49:08;10.60;;;8.10;;
5813;SDS011;2933;52.302;8.134;2023-08-31T08:54:10;12.87;;;8.10;;
5813;SDS011;2933;52.302;8.134;2023-08-31T08:59:13;10.40;;;8.10;;
5813;SDS011;2933;52.302;8.134;2023-08-31T09:04:15;9.87;;;7.77;;
5813;SDS011;2933;52.302;8.134;2023-08-31T09:09:17;8.47;;;6.90;;
5813;SDS011;2933;52.302;8.134;2023-08-31T09:14:20;9.37;;;7.20;;
5813;SDS011;2933;52.302;8.134;2023-08-31T09:19:22;6.10;;;5.53;;
5813;SDS011;2933;52.302;8.134;2023-08-31T09:24:27;6.97;;;5.53;;
5813;SDS011;2933;52.302;8.134;2023-08-31T09:29:31;7.80;;;6.50;;
5813;SDS011;2933;52.302;8.134;2023-08-31T09:34:33;6.43;;;5.77;;
5813;SDS011;2933;52.302;8.134;2023-08-31T09:39:38;9.33;;;5.80;;
5813;SDS011;2933;52.302;8.134;2023-08-31T09:44:42;6.53;;;5.30;;
5813;SDS011;2933;52.302;8.134;2023-08-31T09:49:45;4.90;;;4.10;;
5813;SDS011;2933;52.302;8.134;2023-08-31T09:54:47;3.87;;;3.47;;
5813;SDS011;2933;52.302;8.134;2023-08-31T09:59:52;3.77;;;3.00;;
5813;SDS011;2933;52.302;8.134;2023-08-31T10:04:54;4.47;;;3.53;;
5813;SDS011;2933;52.302;8.134;2023-08-31T10:09:57;10.37;;;3.43;;
5813;SDS011;2933;52.302;8.134;2023-08-31T10:15:00;3.90;;;3.07;;
5813;SDS011;2933;52.302;8.134;2023-08-31T10:20:03;6.43;;;2.50;;
5813;SDS011;2933;52.302;8.134;2023-08-31T10:25:06;2.17;;;1.97;;
5813;SDS011;2933;52.302;8.134;2023-08-31T10:30:25;2.30;;;1.87;;
5813;SDS011;2933;52.302;8.134;2023-08-31T10:35:34;1.80;;;1.70;;
5813;SDS011;2933;52.302;8.134;2023-08-31T10:40:42;1.53;;;1.43;;
5813;SDS011;2933;52.302;8.134;2023-08-31T10:46:02;2.50;;;1.10;;
5813;SDS011;2933;52.302;8.134;2023-08-31T10:51:17;3.90;;;1.30;;
5813;SDS011;2933;52.302;8.134;2023-08-31T10:56:20;1.43;;;1.33;;
5813;SDS011;2933;52.302;8.134;2023-08-31T11:07:12;1.73;;;1.27;;
5813;SDS011;2933;52.302;8.134;2023-08-31T11:12:15;3.00;;;1.63;;
5813;SDS011;2933;52.302;8.134;2023-08-31T11:17:18;1.70;;;1.60;;
5813;SDS011;2933;52.302;8.134;2023-08-31T11:22:21;2.70;;;1.53;;
5813;SDS011;2933;52.302;8.134;2023-08-31T11:27:22;1.40;;;1.30;;
5813;SDS011;2933;52.302;8.134;2023-08-31T11:32:25;1.20;;;1.20;;
5813;SDS011;2933;52.302;8.134;2023-08-31T11:37:27;1.67;;;1.00;;
5813;SDS011;2933;52.302;8.134;2023-08-31T11:42:29;1.90;;;1.13;;
5813;SDS011;2933;52.302;8.134;2023-08-31T11:47:34;2.33;;;1.43;;
5813;SDS011;2933;52.302;8.134;2023-08-31T11:52:37;3.17;;;1.10;;
5813;SDS011;2933;52.302;8.134;2023-08-31T11:57:39;0.90;;;0.90;;
5813;SDS011;2933;52.302;8.134;2023-08-31T12:02:42;0.80;;;0.80;;
5813;SDS011;2933;52.302;8.134;2023-08-31T12:07:46;1.40;;;0.90;;
5813;SDS011;2933;52.302;8.134;2023-08-31T12:12:48;0.70;;;0.70;;
5813;SDS011;2933;52.302;8.134;2023-08-31T12:17:51;2.07;;;0.97;;
5813;SDS011;2933;52.302;8.134;2023-08-31T12:22:54;1.10;;;1.10;;
5813;SDS011;2933;52.302;8.134;2023-08-31T12:27:56;1.37;;;1.00;;
5813;SDS011;2933;52.302;8.134;2023-08-31T12:32:59;4.30;;;1.30;;
5813;SDS011;2933;52.302;8.134;2023-08-31T12:38:00;1.67;;;1.27;;
5813;SDS011;2933;52.302;8.134;2023-08-31T12:43:02;4.50;;;1.57;;
5813;SDS011;2933;52.302;8.134;2023-08-31T12:48:06;1.20;;;1.10;;
5813;SDS011;2933;52.302;8.134;2023-08-31T12:53:08;1.33;;;1.23;;
5813;SDS011;2933;52.302;8.134;2023-08-31T12:58:09;1.30;;;1.20;;
5813;SDS011;2933;52.302;8.134;2023-08-31T13:03:12;6.43;;;1.50;;
5813;SDS011;2933;52.302;8.134;2023-08-31T13:08:14;1.60;;;1.30;;
5813;SDS011;2933;52.302;8.134;2023-08-31T13:13:15;1.53;;;1.43;;
5813;SDS011;2933;52.302;8.134;2023-08-31T13:18:18;1.43;;;1.23;;
5813;SDS011;2933;52.302;8.134;2023-08-31T13:23:20;3.30;;;1.60;;
5813;SDS011;2933;52.302;8.134;2023-08-31T13:28:22;4.00;;;1.37;;
5813;SDS011;2933;52.302;8.134;2023-08-31T13:33:25;3.63;;;1.30;;
5813;SDS011;2933;52.302;8.134;2023-08-31T13:38:28;1.73;;;1.20;;
5813;SDS011;2933;52.302;8.134;2023-08-31T13:43:30;8.70;;;1.30;;
5813;SDS011;2933;52.302;8.134;2023-08-31T13:48:33;2.93;;;1.00;;
5813;SDS011;2933;52.302;8.134;2023-08-31T13:53:34;2.70;;;1.30;;
5813;SDS011;2933;52.302;8.134;2023-08-31T13:58:36;3.10;;;1.03;;
5813;SDS011;2933;52.302;8.134;2023-08-31T14:03:39;0.87;;;0.87;;
5813;SDS011;2933;52.302;8.134;2023-08-31T14:08:41;0.63;;;0.63;;
5813;SDS011;2933;52.302;8.134;2023-08-31T14:13:43;1.73;;;1.63;;
5813;SDS011;2933;52.302;8.134;2023-08-31T14:18:47;1.87;;;0.93;;
5813;SDS011;2933;52.302;8.134;2023-08-31T14:23:49;0.73;;;0.63;;
5813;SDS011;2933;52.302;8.134;2023-08-31T14:28:55;1.43;;;0.50;;
5813;SDS011;2933;52.302;8.134;2023-08-31T14:33:58;1.73;;;0.80;;
5813;SDS011;2933;52.302;8.134;2023-08-31T14:38:59;1.50;;;1.00;;
5813;SDS011;2933;52.302;8.134;2023-08-31T14:44:02;0.73;;;0.73;;
5813;SDS011;2933;52.302;8.134;2023-08-31T14:49:05;1.07;;;0.80;;
5813;SDS011;2933;52.302;8.134;2023-08-31T14:54:07;1.90;;;0.73;;
5813;SDS011;2933;52.302;8.134;2023-08-31T14:59:09;0.73;;;0.73;;
5813;SDS011;2933;52.302;8.134;2023-08-31T15:04:12;0.60;;;0.60;;
5813;SDS011;2933;52.302;8.134;2023-08-31T15:09:13;1.17;;;0.70;;
5813;SDS011;2933;52.302;8.134;2023-08-31T15:14:15;0.80;;;0.80;;
5813;SDS011;2933;52.302;8.134;2023-08-31T15:19:18;0.97;;;0.70;;
5813;SDS011;2933;52.302;8.134;2023-08-31T15:24:19;1.10;;;0.80;;
5813;SDS011;2933;52.302;8.134;2023-08-31T15:29:21;1.00;;;0.90;;
5813;SDS011;2933;52.302;8.134;2023-08-31T15:34:24;3.87;;;1.00;;
5813;SDS011;2933;52.302;8.134;2023-08-31T15:39:26;1.43;;;1.33;;
5813;SDS011;2933;52.302;8.134;2023-08-31T15:44:27;1.63;;;0.90;;
5813;SDS011;2933;52.302;8.134;2023-08-31T15:49:30;3.33;;;0.80;;
5813;SDS011;2933;52.302;8.134;2023-08-31T15:54:31;2.70;;;0.70;;
5813;SDS011;2933;52.302;8.134;2023-08-31T15:59:33;0.77;;;0.77;;
5813;SDS011;2933;52.302;8.134;2023-08-31T16:04:36;4.70;;;0.70;;
5813;SDS011;2933;52.302;8.134;2023-08-31T16:09:37;2.23;;;0.80;;
5813;SDS011;2933;52.302;8.134;2023-08-31T16:14:39;1.03;;;0.67;;
5813;SDS011;2933;52.302;8.134;2023-08-31T16:19:42;2.03;;;0.80;;
5813;SDS011;2933;52.302;8.134;2023-08-31T16:24:44;0.93;;;0.87;;
5813;SDS011;2933;52.302;8.134;2023-08-31T16:29:46;0.83;;;0.80;;
5813;SDS011;2933;52.302;8.134;2023-08-31T16:34:51;0.60;;;0.60;;
5813;SDS011;2933;52.302;8.134;2023-08-31T16:39:53;1.00;;;0.90;;
5813;SDS011;2933;52.302;8.134;2023-08-31T16:44:55;2.57;;;1.80;;
5813;SDS011;2933;52.302;8.134;2023-08-31T16:49:59;1.67;;;1.57;;
5813;SDS011;2933;52.302;8.134;2023-08-31T16:55:00;1.90;;;0.90;;
5813;SDS011;2933;52.302;8.134;2023-08-31T17:00:04;1.00;;;0.90;;
5813;SDS011;2933;52.302;8.134;2023-08-31T17:05:09;1.57;;;1.20;;
5813;SDS011;2933;52.302;8.134;2023-08-31T17:10:11;1.40;;;0.80;;
5813;SDS011;2933;52.302;8.134;2023-08-31T17:15:12;3.03;;;0.90;;
5813;SDS011;2933;52.302;8.134;2023-08-31T17:20:15;1.90;;;1.60;;
5813;SDS011;2933;52.302;8.134;2023-08-31T17:25:18;3.83;;;1.73;;
5813;SDS011;2933;52.302;8.134;2023-08-31T17:30:20;1.83;;;1.10;;
5813;SDS011;2933;52.302;8.134;2023-08-31T17:35:23;1.83;;;1.73;;
5813;SDS011;2933;52.302;8.134;2023-08-31T17:40:24;7.10;;;1.43;;
5813;SDS011;2933;52.302;8.134;2023-08-31T17:45:26;2.40;;;1.00;;
5813;SDS011;2933;52.302;8.134;2023-08-31T17:50:28;2.93;;;1.20;;
5813;SDS011;2933;52.302;8.134;2023-08-31T17:55:31;3.20;;;1.30;;
5813;SDS011;2933;52.302;8.134;2023-08-31T18:00:33;5.03;;;1.53;;
5813;SDS011;2933;52.302;8.134;2023-08-31T18:05:36;3.23;;;2.00;;
5813;SDS011;2933;52.302;8.134;2023-08-31T18:10:38;1.40;;;1.30;;
5813;SDS011;2933;52.302;8.134;2023-08-31T18:15:44;6.60;;;1.27;;
5813;SDS011;2933;52.302;8.134;2023-08-31T18:20:48;5.03;;;1.10;;
5813;SDS011;2933;52.302;8.134;2023-08-31T18:25:49;4.30;;;1.47;;
5813;SDS011;2933;52.302;8.134;2023-08-31T18:30:52;6.23;;;1.90;;
5813;SDS011;2933;52.302;8.134;2023-08-31T18:35:57;1.20;;;1.10;;
5813;SDS011;2933;52.302;8.134;2023-08-31T18:40:59;2.00;;;1.17;;
5813;SDS011;2933;52.302;8.134;2023-08-31T18:46:03;3.07;;;1.27;;
5813;SDS011;2933;52.302;8.134;2023-08-31T18:51:06;3.77;;;1.10;;
5813;SDS011;2933;52.302;8.134;2023-08-31T18:56:08;1.70;;;1.27;;
5813;SDS011;2933;52.302;8.134;2023-08-31T19:01:09;2.70;;;1.40;;
5813;SDS011;2933;52.302;8.134;2023-08-31T19:06:12;3.47;;;1.30;;
5813;SDS011;2933;52.302;8.134;2023-08-31T19:11:14;2.23;;;1.20;;
5813;SDS011;2933;52.302;8.134;2023-08-31T19:16:15;2.47;;;1.20;;
5813;SDS011;2933;52.302;8.134;2023-08-31T19:21:19;2.10;;;1.30;;
5813;SDS011;2933;52.302;8.134;2023-08-31T19:26:21;1.30;;;1.20;;
5813;SDS011;2933;52.302;8.134;2023-08-31T19:31:22;1.77;;;1.27;;
5813;SDS011;2933;52.302;8.134;2023-08-31T19:36:25;1.50;;;1.40;;
5813;SDS011;2933;52.302;8.134;2023-08-31T19:41:27;1.53;;;1.43;;
5813;SDS011;2933;52.302;8.134;2023-08-31T19:46:28;3.03;;;1.57;;
5813;SDS011;2933;52.302;8.134;2023-08-31T19:51:31;2.30;;;1.30;;
5813;SDS011;2933;52.302;8.134;2023-08-31T19:56:33;1.27;;;1.23;;
5813;SDS011;2933;52.302;8.134;2023-08-31T20:01:34;1.27;;;1.20;;
5813;SDS011;2933;52.302;8.134;2023-08-31T20:06:37;2.20;;;1.23;;
5813;SDS011;2933;52.302;8.134;2023-08-31T20:11:39;1.20;;;1.10;;
5813;SDS011;2933;52.302;8.134;2023-08-31T20:16:41;1.40;;;1.27;;
5813;SDS011;2933;52.302;8.134;2023-08-31T20:21:45;2.50;;;2.40;;
5813;SDS011;2933;52.302;8.134;2023-08-31T20:26:47;2.40;;;1.70;;
5813;SDS011;2933;52.302;8.134;2023-08-31T20:31:50;6.37;;;1.53;;
5813;SDS011;2933;52.302;8.134;2023-08-31T20:36:53;1.20;;;1.20;;
5813;SDS011;2933;52.302;8.134;2023-08-31T20:41:55;1.30;;;1.20;;
5813;SDS011;2933;52.302;8.134;2023-08-31T20:46:59;1.17;;;1.17;;
5813;SDS011;2933;52.302;8.134;2023-08-31T20:52:05;5.17;;;1.43;;
5813;SDS011;2933;52.302;8.134;2023-08-31T20:57:06;1.47;;;1.00;;
5813;SDS011;2933;52.302;8.134;2023-08-31T21:02:08;6.80;;;1.10;;
5813;SDS011;2933;52.302;8.134;2023-08-31T21:07:11;4.60;;;1.20;;
5813;SDS011;2933;52.302;8.134;2023-08-31T21:12:12;5.13;;;1.10;;
5813;SDS011;2933;52.302;8.134;2023-08-31T21:17:15;2.40;;;1.07;;
5813;SDS011;2933;52.302;8.134;2023-08-31T21:22:18;9.00;;;1.23;;
5813;SDS011;2933;52.302;8.134;2023-08-31T21:27:19;3.13;;;1.20;;
5813;SDS011;2933;52.302;8.134;2023-08-31T21:32:21;6.33;;;1.30;;
5813;SDS011;2933;52.302;8.134;2023-08-31T21:37:23;2.50;;;1.10;;
5813;SDS011;2933;52.302;8.134;2023-08-31T21:42:25;1.93;;;1.13;;
5813;SDS011;2933;52.302;8.134;2023-08-31T21:47:27;1.50;;;1.40;;
5813;SDS011;2933;52.302;8.134;2023-08-31T21:52:30;0.90;;;0.90;;
5813;SDS011;2933;52.302;8.134;2023-08-31T21:57:31;1.10;;;1.00;;
5813;SDS011;2933;52.302;8.134;2023-08-31T22:02:33;1.87;;;1.07;;
5813;SDS011;2933;52.302;8.134;2023-08-31T22:07:36;1.67;;;1.57;;
5813;SDS011;2933;52.302;8.134;2023-08-31T22:12:38;1.80;;;1.40;;
5813;SDS011;2933;52.302;8.134;2023-08-31T22:17:40;1.40;;;1.30;;
5813;SDS011;2933;52.302;8.134;2023-08-31T22:22:45;3.33;;;1.30;;
5813;SDS011;2933;52.302;8.134;2023-08-31T22:27:48;1.20;;;1.20;;
5813;SDS011;2933;52.302;8.134;2023-08-31T22:32:51;1.03;;;1.03;;
5813;SDS011;2933;52.302;8.134;2023-08-31T22:37:54;1.63;;;1.30;;
5813;SDS011;2933;52.302;8.134;2023-08-31T22:42:55;6.47;;;1.70;;
5813;SDS011;2933;52.302;8.134;2023-08-31T22:47:57;1.47;;;1.37;;
5813;SDS011;2933;52.302;8.134;2023-08-31T22:53:00;1.20;;;1.20;;
5813;SDS011;2933;52.302;8.134;2023-08-31T22:58:03;2.27;;;1.40;;
5813;SDS011;2933;52.302;8.134;2023-08-31T23:03:05;1.43;;;1.10;;
5813;SDS011;2933;52.302;8.134;2023-08-31T23:08:11;1.50;;;1.40;;
5813;SDS011;2933;52.302;8.134;2023-08-31T23:13:13;1.30;;;1.30;;
5813;SDS011;2933;52.302;8.134;2023-08-31T23:18:14;1.70;;;1.60;;
5813;SDS011;2933;52.302;8.134;2023-08-31T23:23:17;1.40;;;1.37;;
5813;SDS011;2933;52.302;8.134;2023-08-31T23:28:19;2.23;;;2.10;;
5813;SDS011;2933;52.302;8.134;2023-08-31T23:33:21;1.93;;;1.83;;
5813;SDS011;2933;52.302;8.134;2023-08-31T23:38:24;2.30;;;2.10;;
5813;SDS011;2933;52.302;8.134;2023-08-31T23:43:26;2.00;;;1.90;;
5813;SDS011;2933;52.302;8.134;2023-08-31T23:48:27;2.30;;;2.20;;
5813;SDS011;2933;52.302;8.134;2023-08-31T23:53:30;4.10;;;2.57;;
5813;SDS011;2933;52.302;8.134;2023-08-31T23:58:33;2.67;;;2.47;;
